createdAt,value
2017-08-03T00:02:07.144Z,23.70
2017-08-03T00:04:35.034Z,23.60
2017-08-03T00:07:02.570Z,23.60
2017-08-03T00:09:30.099Z,23.60
2017-08-03T00:11:57.680Z,23.60
2017-08-03T00:14:25.232Z,23.50
2017-08-03T00:16:53.485Z,23.50
2017-08-03T00:19:21.030Z,23.50
2017-08-03T00:21:48.610Z,23.50
2017-08-03T00:24:16.196Z,23.50
2017-08-03T00:26:43.774Z,23.50
2017-08-03T00:29:11.636Z,23.50
2017-08-03T00:31:39.197Z,23.50
2017-08-03T00:34:06.758Z,23.50
2017-08-03T00:36:34.333Z,23.50
2017-08-03T00:39:01.898Z,23.50
2017-08-03T00:41:29.743Z,23.50
2017-08-03T00:43:57.267Z,23.60
2017-08-03T00:46:25.596Z,23.60
2017-08-03T00:48:53.143Z,23.60
2017-08-03T00:51:20.717Z,23.60
2017-08-03T00:53:48.615Z,23.60
2017-08-03T00:56:16.273Z,23.60
2017-08-03T00:58:44.598Z,23.60
2017-08-03T01:01:12.167Z,23.60
2017-08-03T01:03:39.742Z,23.60
2017-08-03T01:06:07.737Z,23.60
2017-08-03T01:08:35.368Z,23.70
2017-08-03T01:11:02.897Z,23.70
2017-08-03T01:13:30.467Z,23.70
2017-08-03T01:15:57.990Z,23.60
2017-08-03T01:18:25.931Z,23.60
2017-08-03T01:20:53.453Z,23.70
2017-08-03T01:23:21.001Z,23.60
2017-08-03T01:25:48.570Z,23.60
2017-08-03T01:28:16.870Z,23.60
2017-08-03T01:30:44.765Z,23.60
2017-08-03T01:33:12.332Z,23.60
2017-08-03T01:35:39.864Z,23.60
2017-08-03T01:38:07.424Z,23.70
2017-08-03T01:40:34.969Z,23.60
2017-08-03T01:43:02.846Z,23.60
2017-08-03T01:45:37.834Z,23.60
2017-08-03T01:48:05.887Z,23.60
2017-08-03T01:50:33.443Z,23.60
2017-08-03T01:53:00.958Z,23.60
2017-08-03T01:55:28.535Z,23.50
2017-08-03T01:57:56.078Z,23.50
2017-08-03T02:00:24.018Z,23.50
2017-08-03T02:02:52.329Z,23.50
2017-08-03T02:05:19.876Z,23.50
2017-08-03T02:07:47.460Z,23.50
2017-08-03T02:10:15.008Z,23.50
2017-08-03T02:12:42.936Z,23.50
2017-08-03T02:15:10.475Z,23.40
2017-08-03T02:17:37.994Z,23.40
2017-08-03T02:20:05.546Z,23.40
2017-08-03T02:22:33.852Z,23.40
2017-08-03T02:25:01.730Z,23.40
2017-08-03T02:27:29.313Z,23.40
2017-08-03T02:29:56.842Z,23.30
2017-08-03T02:32:24.409Z,23.30
2017-08-03T02:34:51.946Z,23.20
2017-08-03T02:37:19.793Z,23.20
2017-08-03T02:39:48.095Z,23.20
2017-08-03T02:42:15.612Z,23.20
2017-08-03T02:44:43.190Z,23.10
2017-08-03T02:47:11.511Z,23.10
2017-08-03T02:49:39.422Z,23.10
2017-08-03T02:52:06.981Z,23.00
2017-08-03T02:54:34.521Z,23.00
2017-08-03T02:57:02.183Z,23.00
2017-08-03T02:59:29.748Z,23.00
2017-08-03T03:01:57.627Z,23.00
2017-08-03T03:04:25.161Z,23.00
2017-08-03T03:06:52.694Z,22.90
2017-08-03T03:09:20.289Z,22.90
2017-08-03T03:11:47.809Z,22.90
2017-08-03T03:14:15.712Z,22.90
2017-08-03T03:16:43.241Z,22.90
2017-08-03T03:19:10.801Z,22.90
2017-08-03T03:21:38.420Z,22.90
2017-08-03T03:24:05.964Z,22.90
2017-08-03T03:26:33.813Z,22.90
2017-08-03T03:29:01.342Z,22.90
2017-08-03T03:31:28.927Z,22.90
2017-08-03T03:33:56.510Z,22.90
2017-08-03T03:36:24.038Z,22.50
2017-08-03T03:38:53.871Z,22.90
2017-08-03T03:41:21.403Z,22.90
2017-08-03T03:43:48.956Z,22.90
2017-08-03T03:46:16.513Z,22.90
2017-08-03T03:48:44.077Z,22.90
2017-08-03T03:51:12.016Z,22.90
2017-08-03T03:53:39.551Z,22.90
2017-08-03T03:56:07.112Z,22.90
2017-08-03T03:58:34.683Z,22.90
2017-08-03T04:01:02.297Z,22.90
2017-08-03T04:03:31.044Z,22.80
2017-08-03T04:05:58.576Z,22.80
2017-08-03T04:08:26.107Z,22.80
2017-08-03T04:10:53.674Z,22.80
2017-08-03T04:13:21.212Z,22.80
2017-08-03T04:15:49.049Z,22.80
2017-08-03T04:18:21.648Z,22.80
2017-08-03T04:20:50.296Z,22.80
2017-08-03T04:23:17.845Z,22.80
2017-08-03T04:25:45.381Z,22.90
2017-08-03T04:28:12.973Z,22.90
2017-08-03T04:30:40.490Z,22.90
2017-08-03T04:33:08.411Z,22.90
2017-08-03T04:35:35.958Z,22.90
2017-08-03T04:38:03.486Z,23.00
2017-08-03T04:40:31.069Z,23.00
2017-08-03T04:42:58.600Z,23.00
2017-08-03T04:45:27.232Z,23.10
2017-08-03T04:47:54.771Z,23.10
2017-08-03T04:50:22.288Z,23.20
2017-08-03T04:52:49.857Z,23.20
2017-08-03T04:55:17.421Z,23.30
2017-08-03T04:57:45.274Z,23.30
2017-08-03T05:00:12.797Z,23.40
2017-08-03T05:02:40.352Z,23.40
2017-08-03T05:05:07.932Z,23.50
2017-08-03T05:07:35.455Z,23.50
2017-08-03T05:10:03.270Z,23.50
2017-08-03T05:12:30.837Z,23.60
2017-08-03T05:14:58.380Z,23.60
2017-08-03T05:17:25.992Z,23.60
2017-08-03T05:19:53.551Z,23.60
2017-08-03T05:22:21.396Z,23.60
2017-08-03T05:24:48.997Z,23.60
2017-08-03T05:27:16.576Z,23.60
2017-08-03T05:29:44.168Z,23.60
2017-08-03T05:32:11.701Z,23.60
2017-08-03T05:34:39.669Z,23.60
2017-08-03T05:37:07.191Z,23.70
2017-08-03T05:39:34.770Z,23.70
2017-08-03T05:42:02.320Z,23.70
2017-08-03T05:44:29.859Z,23.70
2017-08-03T05:46:58.647Z,23.80
2017-08-03T05:49:26.978Z,23.90
2017-08-03T05:51:54.544Z,23.90
2017-08-03T05:54:22.137Z,23.90
2017-08-03T05:56:49.674Z,24.00
2017-08-03T05:59:17.541Z,24.10
2017-08-03T06:01:45.109Z,24.20
2017-08-03T06:04:12.634Z,24.20
2017-08-03T06:06:40.207Z,24.40
2017-08-03T06:09:07.778Z,24.50
2017-08-03T06:11:47.221Z,24.60
2017-08-03T06:14:14.817Z,24.70
2017-08-03T06:16:43.125Z,24.90
2017-08-03T06:19:11.011Z,24.90
2017-08-03T06:21:38.721Z,24.90
2017-08-03T06:24:10.228Z,25.00
2017-08-03T06:26:37.804Z,25.20
2017-08-03T06:29:05.383Z,25.20
2017-08-03T06:31:32.924Z,25.30
2017-08-03T06:34:00.485Z,25.40
2017-08-03T06:36:28.031Z,25.50
2017-08-03T06:38:55.542Z,25.60
2017-08-03T06:41:23.883Z,25.70
2017-08-03T06:43:59.673Z,25.70
2017-08-03T06:46:27.558Z,25.80
2017-08-03T06:48:55.110Z,25.90
2017-08-03T06:51:24.427Z,26.20
2017-08-03T06:53:52.051Z,26.10
2017-08-03T06:56:27.919Z,26.30
2017-08-03T06:58:55.811Z,26.40
2017-08-03T07:01:23.338Z,26.50
2017-08-03T07:03:50.861Z,26.60
2017-08-03T07:06:18.418Z,26.70
2017-08-03T07:08:45.944Z,26.80
2017-08-03T07:11:13.845Z,26.80
2017-08-03T07:13:41.373Z,26.90
2017-08-03T07:16:08.889Z,27.00
2017-08-03T07:18:36.441Z,27.10
2017-08-03T07:21:03.969Z,27.10
2017-08-03T07:23:31.901Z,27.20
2017-08-03T07:25:59.450Z,27.30
2017-08-03T07:28:26.976Z,27.40
2017-08-03T07:30:54.541Z,27.60
2017-08-03T07:33:22.068Z,27.80
2017-08-03T07:35:49.965Z,27.90
2017-08-03T07:38:17.539Z,28.00
2017-08-03T07:40:45.068Z,28.20
2017-08-03T07:43:29.185Z,28.20
2017-08-03T07:45:57.491Z,28.30
2017-08-03T07:48:25.445Z,28.20
2017-08-03T07:50:53.012Z,28.30
2017-08-03T07:53:20.580Z,28.40
2017-08-03T07:55:48.126Z,28.50
2017-08-03T07:58:15.681Z,28.60
2017-08-03T08:00:44.341Z,28.80
2017-08-03T08:03:11.882Z,28.70
2017-08-03T08:05:39.444Z,28.80
2017-08-03T08:08:07.046Z,28.80
2017-08-03T08:10:35.335Z,29.00
2017-08-03T08:13:03.924Z,29.00
2017-08-03T08:15:31.508Z,28.90
2017-08-03T08:17:59.026Z,29.00
2017-08-03T08:20:26.587Z,29.00
2017-08-03T08:22:54.887Z,29.10
2017-08-03T08:25:22.900Z,29.10
2017-08-03T08:27:50.441Z,29.10
2017-08-03T08:30:17.981Z,29.10
2017-08-03T08:32:45.554Z,29.00
2017-08-03T08:35:13.115Z,29.00
2017-08-03T08:37:41.013Z,29.00
2017-08-03T08:40:08.536Z,28.90
2017-08-03T08:42:36.057Z,28.90
2017-08-03T08:45:03.628Z,28.80
2017-08-03T08:47:31.982Z,28.80
2017-08-03T08:49:59.809Z,28.80
2017-08-03T08:52:27.334Z,28.80
2017-08-03T08:54:54.903Z,28.80
2017-08-03T08:57:23.226Z,28.70
2017-08-03T08:59:50.764Z,28.70
2017-08-03T09:02:18.701Z,28.60
2017-08-03T09:04:46.241Z,28.60
2017-08-03T09:07:13.809Z,28.50
2017-08-03T09:09:41.416Z,28.50
2017-08-03T09:12:09.624Z,28.40
2017-08-03T09:14:37.603Z,28.40
2017-08-03T09:17:05.162Z,28.40
2017-08-03T09:19:32.702Z,28.30
2017-08-03T09:22:00.268Z,28.20
2017-08-03T09:24:27.817Z,28.00
2017-08-03T09:26:55.715Z,27.90
2017-08-03T09:29:23.261Z,27.70
2017-08-03T09:31:50.897Z,27.60
2017-08-03T09:34:18.570Z,27.50
2017-08-03T09:36:46.243Z,27.50
2017-08-03T09:39:14.151Z,27.40
2017-08-03T09:41:42.464Z,27.40
2017-08-03T09:44:10.105Z,27.40
2017-08-03T09:46:43.885Z,27.40
2017-08-03T09:49:11.613Z,27.40
2017-08-03T09:51:39.483Z,27.40
2017-08-03T09:54:15.582Z,27.50
2017-08-03T09:56:43.544Z,27.50
2017-08-03T09:59:11.113Z,27.50
2017-08-03T10:01:38.668Z,27.40
2017-08-03T10:04:06.231Z,27.50
2017-08-03T10:06:39.361Z,27.60
2017-08-03T10:09:07.373Z,27.70
2017-08-03T10:11:34.923Z,27.80
2017-08-03T10:14:11.768Z,27.90
2017-08-03T10:16:43.229Z,27.90
2017-08-03T10:19:10.790Z,28.00
2017-08-03T10:21:38.398Z,28.10
2017-08-03T10:24:05.971Z,28.10
2017-08-03T10:26:33.828Z,28.10
2017-08-03T10:29:05.208Z,28.10
2017-08-03T10:31:33.832Z,28.00
2017-08-03T10:34:01.565Z,28.00
2017-08-03T10:36:39.041Z,27.90
2017-08-03T10:39:06.600Z,27.90
2017-08-03T10:41:34.443Z,27.90
2017-08-03T10:44:02.090Z,27.90
2017-08-03T10:46:30.217Z,27.90
2017-08-03T10:48:58.231Z,27.90
2017-08-03T10:51:26.043Z,27.90
2017-08-03T10:53:53.601Z,27.90
2017-08-03T10:56:22.117Z,27.90
2017-08-03T10:58:50.666Z,28.00
2017-08-03T11:01:18.617Z,28.10
2017-08-03T11:03:46.188Z,28.00
2017-08-03T11:06:33.418Z,28.00
2017-08-03T11:09:00.979Z,28.00
2017-08-03T11:11:28.545Z,28.00
2017-08-03T11:13:56.219Z,28.00
2017-08-03T11:16:23.940Z,27.90
2017-08-03T11:18:52.083Z,27.90
2017-08-03T11:21:19.688Z,28.00
2017-08-03T11:23:47.253Z,28.10
2017-08-03T11:28:46.617Z,28.20
2017-08-03T11:31:14.559Z,28.20
2017-08-03T11:33:43.698Z,28.20
2017-08-03T11:36:11.356Z,28.20
2017-08-03T11:38:40.902Z,28.20
2017-08-03T11:41:08.424Z,28.20
2017-08-03T11:43:36.464Z,28.30
2017-08-03T11:46:04.541Z,28.30
2017-08-03T11:48:32.861Z,28.20
2017-08-03T11:51:02.441Z,28.20
2017-08-03T11:53:30.018Z,28.20
2017-08-03T11:55:57.863Z,28.20
2017-08-03T11:58:27.228Z,28.30
2017-08-03T12:00:54.840Z,28.30
2017-08-03T12:03:23.194Z,28.50
2017-08-03T12:05:55.324Z,28.40
2017-08-03T12:08:23.226Z,28.50
2017-08-03T12:10:50.745Z,28.50
2017-08-03T12:13:18.859Z,28.50
2017-08-03T12:15:46.421Z,28.50
2017-08-03T12:18:13.966Z,28.50
2017-08-03T12:20:41.833Z,28.50
2017-08-03T12:23:09.389Z,28.50
2017-08-03T12:25:37.151Z,28.40
2017-08-03T12:28:05.689Z,28.50
2017-08-03T12:30:33.250Z,28.50
2017-08-03T12:33:02.748Z,28.50
2017-08-03T12:35:30.313Z,28.60
2017-08-03T12:37:58.649Z,28.90
2017-08-03T12:40:26.369Z,28.90
2017-08-03T12:42:53.919Z,29.10
2017-08-03T12:45:22.490Z,29.40
2017-08-03T12:47:50.796Z,29.60
2017-08-03T12:50:18.508Z,29.50
2017-08-03T12:52:46.100Z,29.80
2017-08-03T12:55:14.080Z,29.90
2017-08-03T12:57:42.127Z,30.10
2017-08-03T13:00:10.493Z,30.10
2017-08-03T13:02:38.066Z,30.00
2017-08-03T13:05:05.706Z,30.00
2017-08-03T13:07:33.469Z,29.90
2017-08-03T13:10:01.473Z,29.80
2017-08-03T13:12:29.201Z,29.80
2017-08-03T13:14:56.931Z,29.70
2017-08-03T13:17:28.334Z,29.70
2017-08-03T13:19:56.593Z,29.70
2017-08-03T13:22:24.483Z,29.80
2017-08-03T13:24:52.028Z,29.80
2017-08-03T13:27:19.665Z,30.00
2017-08-03T13:29:50.607Z,30.10
2017-08-03T13:32:18.178Z,30.20
2017-08-03T13:34:46.075Z,30.30
2017-08-03T13:37:14.380Z,30.50
2017-08-03T13:39:42.767Z,30.60
2017-08-03T13:42:11.256Z,30.50
2017-08-03T13:44:38.841Z,30.70
2017-08-03T13:47:16.805Z,30.90
2017-08-03T13:49:50.095Z,31.20
2017-08-03T13:52:34.312Z,31.30
2017-08-03T13:55:01.886Z,31.20
2017-08-03T13:57:34.158Z,31.20
2017-08-03T14:00:03.721Z,31.10
2017-08-03T14:02:38.825Z,31.10
2017-08-03T14:05:06.411Z,31.10
2017-08-03T14:07:33.991Z,31.10
2017-08-03T14:10:01.653Z,31.10
2017-08-03T14:12:29.353Z,31.00
2017-08-03T14:15:03.498Z,30.90
2017-08-03T14:17:31.831Z,30.90
2017-08-03T14:19:59.375Z,30.90
2017-08-03T14:22:26.957Z,31.00
2017-08-03T14:24:54.523Z,31.30
2017-08-03T14:27:22.366Z,31.50
2017-08-03T14:29:49.936Z,31.60
2017-08-03T14:32:37.915Z,31.70
2017-08-03T14:35:05.450Z,31.80
2017-08-03T14:37:32.999Z,32.00
2017-08-03T14:40:00.572Z,32.60
2017-08-03T14:42:28.105Z,33.80
2017-08-03T14:44:55.941Z,35.20
2017-08-03T14:47:37.010Z,36.20
2017-08-03T14:50:04.975Z,36.90
2017-08-03T14:52:32.497Z,36.90
2017-08-03T14:55:00.006Z,37.10
2017-08-03T14:57:27.809Z,37.60
2017-08-03T14:59:55.356Z,38.10
2017-08-03T15:02:23.247Z,38.40
2017-08-03T15:04:50.760Z,38.40
2017-08-03T15:07:18.289Z,38.20
2017-08-03T15:09:45.902Z,38.30
2017-08-03T15:12:17.252Z,38.70
2017-08-03T15:14:50.472Z,39.40
2017-08-03T15:17:18.016Z,40.00
2017-08-03T15:19:45.688Z,40.60
2017-08-03T15:22:21.502Z,41.30
2017-08-03T15:24:49.046Z,41.70
2017-08-03T15:27:30.796Z,41.90
2017-08-03T15:29:58.759Z,41.80
2017-08-03T15:32:26.325Z,41.80
2017-08-03T15:34:53.886Z,41.70
2017-08-03T15:37:21.446Z,41.70
2017-08-03T15:39:49.375Z,41.50
2017-08-03T15:42:20.887Z,41.50
2017-08-03T15:44:48.733Z,41.50
2017-08-03T15:47:16.317Z,41.20
2017-08-03T15:49:43.839Z,41.00
2017-08-03T15:52:11.520Z,40.90
2017-08-03T15:54:39.125Z,40.90
2017-08-03T15:57:08.766Z,40.30
2017-08-03T15:59:37.137Z,40.60
2017-08-03T16:02:04.712Z,40.50
2017-08-03T16:04:39.334Z,40.50
2017-08-03T16:07:06.885Z,40.30
2017-08-03T16:09:34.800Z,40.10
2017-08-03T16:12:04.412Z,39.70
2017-08-03T16:14:31.956Z,39.50
2017-08-03T16:16:59.527Z,39.40
2017-08-03T16:19:35.112Z,39.40
2017-08-03T16:22:02.994Z,39.50
2017-08-03T16:24:30.785Z,39.70
2017-08-03T16:26:58.421Z,39.90
2017-08-03T16:29:25.993Z,40.00
2017-08-03T16:31:53.599Z,40.20
2017-08-03T16:34:21.453Z,40.20
2017-08-03T16:36:49.019Z,40.00
2017-08-03T16:39:16.574Z,39.70
2017-08-03T16:41:44.215Z,39.60
2017-08-03T16:44:17.725Z,39.50
2017-08-03T16:46:45.670Z,39.40
2017-08-03T16:49:26.057Z,39.10
2017-08-03T16:51:53.918Z,38.90
2017-08-03T16:54:21.472Z,38.50
2017-08-03T16:57:04.132Z,38.40
2017-08-03T16:59:31.673Z,38.30
2017-08-03T17:01:59.581Z,38.30
2017-08-03T17:04:28.312Z,38.20
2017-08-03T17:06:55.886Z,38.10
2017-08-03T17:09:23.461Z,38.00
2017-08-03T17:11:51.009Z,37.80
2017-08-03T17:14:18.869Z,37.70
2017-08-03T17:16:47.427Z,37.60
2017-08-03T17:19:14.988Z,37.60
2017-08-03T17:21:43.333Z,37.40
2017-08-03T17:24:10.910Z,37.30
2017-08-03T17:26:38.845Z,37.20
2017-08-03T17:29:06.378Z,37.20
2017-08-03T17:31:34.041Z,37.10
2017-08-03T17:34:01.725Z,37.00
2017-08-03T17:36:29.281Z,36.70
2017-08-03T17:38:57.223Z,36.40
2017-08-03T17:41:24.782Z,36.20
2017-08-03T17:43:52.418Z,36.00
2017-08-03T17:46:20.760Z,35.80
2017-08-03T17:48:48.297Z,35.80
2017-08-03T17:51:16.213Z,35.60
2017-08-03T17:53:43.769Z,35.30
2017-08-03T17:56:11.751Z,35.00
2017-08-03T17:58:39.487Z,34.60
2017-08-03T18:01:07.065Z,34.20
2017-08-03T18:03:34.921Z,33.70
2017-08-03T18:06:02.485Z,33.30
2017-08-03T18:08:44.802Z,32.90
2017-08-03T18:11:12.381Z,32.60
2017-08-03T18:13:46.220Z,32.30
2017-08-03T18:16:14.695Z,32.00
2017-08-03T18:18:42.299Z,31.70
2017-08-03T18:21:09.908Z,31.50
2017-08-03T18:23:37.533Z,31.30
2017-08-03T18:26:06.277Z,30.90
2017-08-03T18:28:34.049Z,30.90
2017-08-03T18:31:01.716Z,30.80
2017-08-03T18:33:29.423Z,30.60
2017-08-03T18:35:57.154Z,30.50
2017-08-03T18:38:25.088Z,30.40
2017-08-03T18:40:52.781Z,30.20
2017-08-03T18:43:20.468Z,30.10
2017-08-03T18:45:48.126Z,30.00
2017-08-03T18:48:15.692Z,30.00
2017-08-03T18:50:44.579Z,29.70
2017-08-03T18:53:12.152Z,29.70
2017-08-03T18:55:39.947Z,29.60
2017-08-03T18:58:07.551Z,29.60
2017-08-03T19:00:35.231Z,29.50
2017-08-03T19:03:03.123Z,29.40
2017-08-03T19:05:30.744Z,29.30
2017-08-03T19:08:01.501Z,29.30
2017-08-03T19:10:29.132Z,29.20
2017-08-03T19:12:56.797Z,29.20
2017-08-03T19:15:28.653Z,29.00
2017-08-03T19:17:56.362Z,29.00
2017-08-03T19:20:24.075Z,29.00
2017-08-03T19:22:58.009Z,28.90
2017-08-03T19:25:25.658Z,28.80
2017-08-03T19:27:53.575Z,28.80
2017-08-03T19:30:21.934Z,28.80
2017-08-03T19:32:49.652Z,28.70
2017-08-03T19:35:17.449Z,28.60
2017-08-03T19:37:45.301Z,28.60
2017-08-03T19:40:13.555Z,28.50
2017-08-03T19:42:47.250Z,28.50
2017-08-03T19:45:18.357Z,28.40
2017-08-03T19:47:46.088Z,28.40
2017-08-03T19:50:14.727Z,28.40
2017-08-03T19:52:43.203Z,28.30
2017-08-03T19:55:12.733Z,28.20
2017-08-03T19:57:40.896Z,28.20
2017-08-03T20:00:08.501Z,28.20
2017-08-03T20:02:36.046Z,28.10
2017-08-03T20:05:06.738Z,28.10
2017-08-03T20:07:44.246Z,28.00
2017-08-03T20:10:13.647Z,28.00
2017-08-03T20:12:41.198Z,28.00
2017-08-03T20:15:10.313Z,27.90
2017-08-03T20:17:41.651Z,27.80
2017-08-03T20:20:09.294Z,27.70
2017-08-03T20:22:36.981Z,27.70
2017-08-03T20:25:04.666Z,27.70
2017-08-03T20:27:33.507Z,27.60
2017-08-03T20:30:03.271Z,27.60
2017-08-03T20:32:30.978Z,27.50
2017-08-03T20:34:59.764Z,27.50
2017-08-03T20:37:27.727Z,27.50
2017-08-03T20:39:56.397Z,27.50
2017-08-03T20:42:24.114Z,27.40
2017-08-03T20:44:52.591Z,27.30
2017-08-03T20:47:20.409Z,27.30
2017-08-03T20:49:48.112Z,27.30
2017-08-03T20:52:19.064Z,27.20
2017-08-03T20:54:46.715Z,27.20
2017-08-03T20:57:19.294Z,27.20
2017-08-03T20:59:46.931Z,27.10
2017-08-03T21:02:14.599Z,27.10
2017-08-03T21:04:43.395Z,27.00
2017-08-03T21:07:11.077Z,27.00
2017-08-03T21:09:40.147Z,26.90
2017-08-03T21:12:07.899Z,26.90
2017-08-03T21:14:37.690Z,26.90
2017-08-03T21:17:05.399Z,26.80
2017-08-03T21:19:32.976Z,26.80
2017-08-03T21:22:00.901Z,26.70
2017-08-03T21:24:33.014Z,26.60
2017-08-03T21:27:01.012Z,26.50
2017-08-03T21:29:28.640Z,26.50
2017-08-03T21:31:56.497Z,26.50
2017-08-03T21:34:24.157Z,26.50
2017-08-03T21:36:51.876Z,26.50
2017-08-03T21:39:19.918Z,26.40
2017-08-03T21:41:47.528Z,26.40
2017-08-03T21:44:15.085Z,26.40
2017-08-03T21:46:42.663Z,26.40
2017-08-03T21:49:10.263Z,26.40
2017-08-03T21:51:38.143Z,26.40
2017-08-03T21:54:05.721Z,26.40
2017-08-03T21:56:33.322Z,26.40
2017-08-03T21:59:05.695Z,26.30
2017-08-03T22:01:33.235Z,26.30
2017-08-03T22:04:01.982Z,26.20
2017-08-03T22:06:29.645Z,26.20
2017-08-03T22:08:57.335Z,26.20
2017-08-03T22:11:24.919Z,26.20
2017-08-03T22:13:52.496Z,26.10
2017-08-03T22:16:20.402Z,26.10
2017-08-03T22:18:47.934Z,26.10
2017-08-03T22:21:15.471Z,26.00
2017-08-03T22:23:43.029Z,26.00
2017-08-03T22:26:11.303Z,26.00
2017-08-03T22:28:39.196Z,26.00
2017-08-03T22:31:06.744Z,26.00
2017-08-03T22:33:35.195Z,26.00
2017-08-03T22:36:02.800Z,26.10
2017-08-03T22:38:31.226Z,26.10
2017-08-03T22:40:59.154Z,26.10
2017-08-03T22:43:26.681Z,26.20
2017-08-03T22:45:54.209Z,26.20
2017-08-03T22:48:22.075Z,26.10
2017-08-03T22:50:49.598Z,26.10
2017-08-03T22:53:17.139Z,26.10
2017-08-03T22:55:45.063Z,26.10
2017-08-03T22:58:13.379Z,25.90
2017-08-03T23:00:44.773Z,25.90
2017-08-03T23:03:12.636Z,25.80
2017-08-03T23:05:40.166Z,25.70
2017-08-03T23:08:07.714Z,25.50
2017-08-03T23:10:35.564Z,25.50
2017-08-03T23:13:03.860Z,25.30
2017-08-03T23:15:31.403Z,25.30
2017-08-03T23:17:59.318Z,25.30
2017-08-03T23:20:26.859Z,25.20
2017-08-03T23:22:54.388Z,25.10
2017-08-03T23:25:23.044Z,24.90
2017-08-03T23:27:50.560Z,24.90
2017-08-03T23:30:18.136Z,24.90
2017-08-03T23:32:46.025Z,24.90
2017-08-03T23:35:13.560Z,24.80
2017-08-03T23:37:41.993Z,24.80
2017-08-03T23:40:09.820Z,24.70
2017-08-03T23:42:37.334Z,24.70
2017-08-03T23:45:08.666Z,24.70
2017-08-03T23:47:36.473Z,24.70
2017-08-03T23:50:04.013Z,24.70
2017-08-03T23:52:43.703Z,24.70
2017-08-03T23:55:11.257Z,24.70
2017-08-03T23:57:38.838Z,24.70
